createdAt,value
2022-11-04T00:01:03.824Z,14.30
2022-11-04T00:06:05.732Z,14.50
2022-11-04T00:11:07.571Z,14.50
2022-11-04T00:16:10.115Z,14.60
2022-11-04T00:21:11.825Z,14.60
2022-11-04T00:26:13.567Z,14.70
2022-11-04T00:31:15.276Z,14.50
2022-11-04T00:36:17.031Z,14.60
2022-11-04T00:41:18.754Z,14.80
2022-11-04T00:46:20.829Z,14.70
2022-11-04T00:51:22.659Z,14.70
2022-11-04T00:56:24.367Z,14.60
2022-11-04T01:01:26.121Z,14.50
2022-11-04T01:06:28.224Z,14.60
2022-11-04T01:11:29.966Z,14.50
2022-11-04T01:16:31.884Z,14.80
2022-11-04T01:21:33.683Z,15.00
2022-11-04T01:26:35.428Z,15.10
2022-11-04T01:31:37.100Z,15.10
2022-11-04T01:36:38.802Z,15.10
2022-11-04T01:41:40.685Z,15.20
2022-11-04T01:46:47.116Z,15.10
2022-11-04T01:51:50.300Z,15.20
2022-11-04T01:56:52.676Z,15.10
2022-11-04T02:01:54.762Z,15.10
2022-11-04T02:07:02.279Z,15.10
2022-11-04T02:12:04.465Z,15.00
2022-11-04T02:17:24.983Z,15.00
2022-11-04T02:22:35.532Z,15.00
2022-11-04T02:28:00.244Z,15.00
2022-11-04T02:33:11.360Z,15.00
2022-11-04T02:38:22.192Z,15.00
2022-11-04T02:44:18.057Z,15.00
2022-11-04T02:49:34.741Z,15.00
2022-11-04T02:54:59.554Z,14.90
2022-11-04T03:00:08.752Z,14.90
2022-11-04T03:05:15.040Z,14.80
2022-11-04T03:10:29.833Z,14.70
2022-11-04T03:15:35.466Z,14.80
2022-11-04T03:20:39.633Z,14.70
2022-11-04T03:25:45.975Z,14.70
2022-11-04T03:30:51.127Z,14.70
2022-11-04T03:35:52.995Z,14.60
2022-11-04T03:40:54.868Z,14.70
2022-11-04T03:45:56.689Z,14.70
2022-11-04T03:50:58.965Z,14.60
2022-11-04T03:56:25.548Z,14.60
2022-11-04T04:01:54.469Z,14.60
2022-11-04T04:07:06.672Z,14.70
2022-11-04T04:12:16.929Z,14.70
2022-11-04T04:17:46.911Z,14.60
2022-11-04T04:22:59.687Z,14.60
2022-11-04T04:28:02.169Z,14.30
2022-11-04T04:33:08.783Z,13.70
2022-11-04T04:38:31.109Z,13.90
2022-11-04T04:43:32.847Z,14.10
2022-11-04T04:48:34.525Z,14.00
2022-11-04T04:53:36.199Z,14.40
2022-11-04T04:58:37.950Z,14.40
2022-11-04T05:03:44.835Z,14.20
2022-11-04T05:08:46.923Z,14.30
2022-11-04T05:13:48.588Z,14.60
2022-11-04T05:18:52.365Z,14.30
2022-11-04T05:23:54.031Z,14.10
2022-11-04T05:28:55.676Z,14.10
2022-11-04T05:33:57.418Z,14.00
2022-11-04T05:38:59.231Z,13.60
2022-11-04T05:44:03.145Z,13.50
2022-11-04T05:49:04.846Z,13.30
2022-11-04T05:54:06.585Z,12.90
2022-11-04T05:59:08.267Z,12.20
2022-11-04T06:04:15.568Z,12.10
2022-11-04T06:09:17.274Z,12.10
2022-11-04T06:14:19.122Z,12.10
2022-11-04T06:19:20.919Z,12.10
2022-11-04T06:24:22.892Z,12.00
2022-11-04T06:29:24.586Z,11.90
2022-11-04T06:34:26.714Z,11.80
2022-11-04T06:39:28.434Z,11.70
2022-11-04T06:44:30.512Z,12.00
2022-11-04T06:49:32.230Z,12.10
2022-11-04T06:54:33.913Z,12.10
2022-11-04T06:59:35.597Z,12.30
2022-11-04T07:04:37.555Z,12.30
2022-11-04T07:09:39.286Z,12.20
2022-11-04T07:14:40.959Z,12.10
2022-11-04T07:19:42.872Z,12.50
2022-11-04T07:24:44.793Z,12.60
2022-11-04T07:29:46.496Z,12.60
2022-11-04T07:34:48.392Z,12.30
2022-11-04T07:39:50.063Z,12.20
2022-11-04T07:44:51.755Z,12.50
2022-11-04T07:49:53.526Z,12.60
2022-11-04T07:54:55.238Z,12.60
2022-11-04T07:59:57.102Z,12.50
2022-11-04T08:04:58.799Z,12.90
2022-11-04T08:10:00.494Z,12.90
2022-11-04T08:15:02.186Z,13.30
2022-11-04T09:13:27.172Z,14.80
2022-11-04T09:18:28.834Z,15.50
2022-11-04T09:23:30.777Z,15.40
2022-11-04T09:28:32.474Z,15.40
2022-11-04T09:33:34.551Z,15.50
2022-11-04T09:38:37.193Z,15.80
2022-11-04T09:44:01.344Z,16.00
2022-11-04T09:49:07.415Z,16.00
2022-11-04T09:54:24.142Z,16.00
2022-11-04T09:59:29.428Z,16.10
2022-11-04T10:04:46.552Z,16.40
2022-11-04T10:09:58.215Z,16.70
2022-11-04T10:15:18.637Z,16.90
2022-11-04T10:20:44.175Z,17.20
2022-11-04T10:26:13.672Z,16.70
2022-11-04T10:31:18.108Z,17.10
2022-11-04T10:36:21.021Z,17.00
2022-11-04T10:41:32.027Z,17.30
2022-11-04T10:46:55.723Z,17.40
2022-11-04T10:57:14.940Z,17.80
2022-11-04T11:02:17.041Z,18.00
2022-11-04T11:07:18.841Z,17.90
2022-11-04T11:23:45.810Z,18.50
2022-11-04T11:28:59.120Z,18.20
2022-11-04T11:34:05.786Z,18.90
2022-11-04T11:39:19.008Z,18.90
2022-11-04T11:44:34.379Z,18.70
2022-11-04T11:49:37.433Z,18.80
2022-11-04T11:54:40.960Z,19.30
2022-11-04T12:10:56.390Z,19.00
2022-11-04T12:16:16.385Z,19.40
2022-11-04T12:21:23.782Z,19.60
2022-11-04T12:26:39.992Z,19.30
2022-11-04T12:31:51.458Z,19.40
2022-11-04T12:37:07.864Z,19.00
2022-11-04T12:42:38.832Z,19.20
2022-11-04T12:47:44.726Z,19.50
2022-11-04T12:53:33.890Z,20.10
2022-11-04T12:58:38.131Z,20.00
2022-11-04T13:04:04.785Z,19.60
2022-11-04T13:09:16.703Z,19.60
2022-11-04T13:14:32.021Z,19.50
2022-11-04T13:19:48.645Z,19.20
2022-11-04T13:25:01.896Z,19.60
2022-11-04T13:30:46.949Z,19.40
2022-11-04T13:36:16.184Z,19.40
2022-11-04T13:41:51.947Z,19.40
2022-11-04T13:46:58.566Z,19.50
2022-11-04T13:52:05.806Z,19.40
2022-11-04T13:57:16.971Z,19.20
2022-11-04T14:02:21.468Z,19.00
2022-11-04T14:08:01.252Z,18.90
2022-11-04T14:13:27.625Z,19.00
2022-11-04T14:18:49.438Z,18.90
2022-11-04T14:23:59.358Z,18.80
2022-11-04T14:29:18.870Z,18.40
2022-11-04T14:34:35.989Z,18.40
2022-11-04T14:39:42.029Z,18.20
2022-11-04T14:44:49.925Z,18.30
2022-11-04T14:49:58.812Z,18.00
2022-11-04T14:55:14.325Z,18.30
2022-11-04T15:00:33.086Z,17.80
2022-11-04T15:05:36.421Z,17.90
2022-11-04T15:10:38.140Z,17.60
2022-11-04T15:15:42.930Z,17.60
2022-11-04T15:21:00.326Z,17.50
2022-11-04T15:26:03.678Z,17.50
2022-11-04T15:31:14.407Z,17.40
2022-11-04T15:36:22.705Z,17.20
2022-11-04T15:41:27.140Z,17.00
2022-11-04T15:46:28.955Z,16.70
2022-11-04T15:51:36.341Z,16.50
2022-11-04T15:56:45.609Z,16.30
2022-11-04T16:01:50.046Z,16.30
2022-11-04T16:07:21.036Z,16.20
2022-11-04T16:12:28.275Z,16.10
2022-11-04T16:17:31.472Z,16.20
2022-11-04T16:22:35.935Z,16.20
2022-11-04T16:27:37.943Z,16.20
2022-11-04T16:32:48.217Z,16.00
2022-11-04T16:37:50.633Z,16.00
2022-11-04T16:42:53.291Z,15.90
2022-11-04T16:47:55.067Z,15.90
2022-11-04T16:52:56.781Z,15.90
2022-11-04T16:58:01.681Z,15.70
2022-11-04T17:03:16.151Z,15.60
2022-11-04T17:08:18.272Z,15.50
2022-11-04T17:13:20.198Z,15.20
2022-11-04T17:18:22.053Z,15.20
2022-11-04T17:23:23.989Z,15.20
2022-11-04T17:28:25.671Z,15.20
2022-11-04T17:33:27.873Z,15.20
2022-11-04T17:38:30.040Z,15.20
2022-11-04T17:43:32.146Z,15.20
2022-11-04T17:48:33.834Z,15.20
2022-11-04T17:53:35.562Z,14.50
2022-11-04T17:58:37.247Z,14.40
2022-11-04T18:03:38.945Z,13.90
2022-11-04T18:08:40.859Z,13.80
2022-11-04T18:13:42.574Z,14.20
2022-11-04T18:18:44.287Z,14.10
2022-11-04T18:23:46.073Z,14.00
2022-11-04T18:28:47.760Z,14.00
2022-11-04T18:33:49.576Z,13.90
2022-11-04T18:38:51.299Z,13.70
2022-11-04T18:43:52.970Z,13.50
2022-11-04T18:48:54.738Z,13.40
2022-11-04T18:53:56.377Z,13.50
2022-11-04T18:58:58.282Z,13.00
2022-11-04T19:04:00.498Z,13.10
2022-11-04T19:09:32.057Z,13.10
2022-11-04T19:14:27.479Z,13.30
2022-11-04T19:19:29.197Z,13.00
2022-11-04T19:24:30.893Z,13.40
2022-11-04T19:29:32.852Z,13.00
2022-11-04T19:34:34.529Z,13.70
2022-11-04T19:39:36.561Z,13.30
2022-11-04T19:44:38.219Z,13.00
2022-11-04T19:49:40.101Z,13.10
2022-11-04T19:54:42.654Z,13.00
2022-11-04T19:59:44.353Z,13.10
2022-11-04T20:04:46.513Z,13.40
2022-11-04T20:09:49.611Z,13.40
2022-11-04T20:14:55.371Z,13.30
2022-11-04T20:19:57.056Z,13.50
2022-11-04T20:24:58.728Z,13.50
2022-11-04T20:30:00.463Z,13.50
2022-11-04T20:35:02.204Z,13.00
2022-11-04T20:40:04.839Z,12.80
2022-11-04T20:45:06.967Z,12.70
2022-11-04T20:50:10.473Z,12.90
2022-11-04T20:55:12.284Z,12.90
2022-11-04T21:00:14.543Z,12.80
2022-11-04T21:05:17.023Z,13.10
2022-11-04T21:10:18.658Z,12.50
2022-11-04T21:15:20.930Z,12.90
2022-11-04T21:20:23.417Z,12.40
2022-11-04T21:25:25.128Z,12.90
2022-11-04T21:30:32.879Z,12.70
2022-11-04T21:35:39.811Z,12.60
2022-11-04T21:40:42.453Z,12.30
2022-11-04T21:45:44.191Z,12.40
2022-11-04T21:50:45.849Z,12.40
2022-11-04T21:55:47.568Z,12.30
2022-11-04T22:00:58.443Z,12.30
2022-11-04T22:06:08.193Z,12.30
2022-11-04T22:11:11.902Z,12.90
2022-11-04T22:16:16.461Z,12.60
2022-11-04T22:21:19.277Z,12.20
2022-11-04T22:26:23.813Z,12.20
2022-11-04T22:31:33.944Z,12.30
2022-11-04T22:36:35.744Z,12.10
2022-11-04T22:41:38.169Z,12.10
2022-11-04T22:46:40.189Z,11.90
2022-11-04T22:51:42.130Z,11.90
2022-11-04T22:56:44.660Z,11.90
2022-11-04T23:01:46.748Z,11.90
2022-11-04T23:06:49.215Z,12.10
2022-11-04T23:11:50.909Z,11.80
2022-11-04T23:16:52.744Z,11.80
2022-11-04T23:21:54.407Z,11.60
2022-11-04T23:26:57.021Z,11.80
2022-11-04T23:31:58.804Z,12.00
2022-11-04T23:37:00.476Z,11.10
2022-11-04T23:42:02.255Z,11.70
2022-11-04T23:47:03.975Z,11.60
2022-11-04T23:52:05.629Z,11.10
2022-11-04T23:57:18.513Z,11.30
